NM53 weather

San Miguel Ranch Airport
Las Vegas, New Mexico, United States

Public forecast

Using degrees Fahrenheit for public forecast. Weather courtesy of forecast.io.

Closest aviation weather report (METAR) to San Miguel Ranch Airport

Closest report is Las Vegas Municipal Airport, 28.6 nm (52.9 km) WNW. Retrieved 2020/02/21 04:53 UTC (29 minutes ago):

KLVS 210453Z AUTO 18008KT 10SM OVC014 M04/M07 A3052 RMK AO2 SLP367 T10441072

Closest aviation forecast (TAF) to San Miguel Ranch Airport

Closest forecast is Las Vegas Municipal Airport, 28.6 nm (52.9 km) WNW. Retrieved 2020-02-21 00:42 UTC (5 hours ago):

TAF KLVS 202339Z 2100/2124 16011KT P6SM OVC015 FM210200 17008KT P6SM BKN025 FM210800 18008KT P6SM SCT040 FM211600 19011KT P6SM BKN250 FM212000 20013KT P6SM BKN200